createdAt,value
2022-08-18T19:24:47.793Z,20.90
2022-08-18T19:27:25.276Z,22.07
2022-08-18T19:29:59.369Z,20.83
2022-08-18T19:32:38.981Z,18.93
2022-08-18T19:35:14.006Z,22.47
2022-08-18T19:38:04.541Z,16.50
2022-08-18T19:40:45.169Z,23.87
2022-08-18T19:43:28.419Z,18.33
2022-08-18T19:46:10.493Z,15.07
2022-08-18T19:48:44.402Z,14.17
2022-08-18T19:51:19.092Z,15.67
2022-08-18T19:54:02.340Z,14.40
2022-08-18T19:56:49.059Z,14.70
2022-08-18T19:59:39.762Z,18.20
2022-08-18T20:02:20.883Z,13.97
2022-08-18T20:05:09.692Z,14.10
2022-08-18T20:07:55.632Z,13.67
2022-08-18T20:10:37.631Z,12.60
2022-08-18T20:13:35.331Z,14.30
2022-08-18T20:16:31.380Z,13.17
2022-08-18T20:19:41.892Z,11.63
2022-08-18T20:22:16.184Z,14.07
2022-08-18T20:24:52.129Z,13.00
2022-08-18T20:27:35.950Z,14.17
2022-08-18T20:30:32.076Z,16.47
2022-08-18T20:33:15.057Z,15.10
2022-08-18T20:35:47.965Z,12.37
2022-08-18T20:38:22.600Z,14.23
2022-08-18T20:40:52.485Z,14.93
2022-08-18T20:43:27.605Z,12.13
2022-08-18T20:46:08.533Z,14.50
2022-08-18T20:48:51.681Z,15.93
2022-08-18T20:51:25.370Z,13.77
2022-08-18T20:54:05.273Z,16.50
2022-08-18T20:56:47.011Z,15.03
2022-08-18T20:59:20.318Z,14.97
2022-08-18T21:02:02.489Z,18.10
2022-08-18T21:04:53.852Z,14.70
2022-08-18T21:07:36.822Z,15.30
2022-08-18T21:10:13.607Z,15.67
2022-08-18T21:12:52.106Z,16.50
2022-08-18T21:15:24.506Z,17.73
2022-08-18T21:18:02.861Z,18.00
2022-08-18T21:20:32.863Z,17.07
2022-08-18T21:23:08.123Z,18.20
2022-08-18T21:25:42.797Z,18.93
2022-08-18T21:28:13.346Z,18.57
2022-08-18T21:30:56.090Z,20.03
2022-08-18T21:33:50.772Z,19.47
2022-08-18T21:36:20.234Z,19.87
2022-08-18T21:39:04.055Z,21.70
2022-08-18T21:41:40.383Z,23.23
2022-08-18T21:44:15.815Z,19.57
2022-08-18T21:46:46.480Z,21.17
2022-08-18T21:49:24.985Z,18.67
2022-08-18T21:51:53.365Z,22.63
2022-08-18T21:54:23.862Z,19.93
2022-08-18T21:57:20.048Z,21.20
2022-08-18T22:00:19.289Z,23.13
2022-08-18T22:02:52.142Z,19.43
2022-08-18T22:05:58.732Z,21.10
2022-08-18T22:08:22.453Z,21.37
2022-08-18T22:12:00.511Z,23.80
2022-08-18T22:14:53.868Z,22.13
2022-08-18T22:17:30.486Z,23.87
2022-08-18T22:20:34.275Z,26.97
2022-08-18T22:23:24.703Z,22.27
2022-08-18T22:25:53.050Z,23.03
2022-08-18T22:28:26.537Z,22.47
2022-08-18T22:30:55.586Z,23.07
2022-08-18T22:33:23.861Z,29.47
2022-08-18T22:35:56.974Z,22.93
2022-08-18T22:38:29.522Z,21.57
2022-08-18T22:40:59.173Z,24.43
2022-08-18T22:43:27.383Z,23.13
2022-08-18T22:45:55.646Z,23.33
2022-08-18T22:48:23.846Z,22.87
2022-08-18T22:50:52.019Z,24.17
2022-08-18T22:53:21.716Z,24.10
2022-08-18T22:55:53.246Z,25.30
2022-08-18T22:58:26.909Z,22.93
2022-08-18T23:01:01.398Z,21.97
2022-08-18T23:03:41.744Z,22.27
2022-08-18T23:06:11.492Z,23.97
2022-08-18T23:08:54.652Z,21.50
2022-08-18T23:11:24.113Z,25.03
2022-08-18T23:13:52.423Z,23.17
2022-08-18T23:16:30.546Z,22.30
2022-08-18T23:19:02.083Z,24.93
2022-08-18T23:21:34.518Z,23.30
2022-08-18T23:24:05.871Z,24.63
2022-08-18T23:26:34.189Z,24.07
2022-08-18T23:29:02.634Z,22.47
2022-08-18T23:31:31.515Z,20.03
2022-08-18T23:34:00.625Z,23.70
2022-08-18T23:36:29.214Z,24.00
2022-08-18T23:38:57.402Z,25.07
2022-08-18T23:41:26.849Z,23.53
2022-08-18T23:43:54.934Z,21.07
2022-08-18T23:46:25.707Z,21.67
2022-08-18T23:48:55.276Z,21.50
2022-08-18T23:51:29.919Z,21.40
2022-08-18T23:53:59.923Z,24.33
2022-08-18T23:56:30.295Z,20.43
2022-08-18T23:58:59.773Z,20.90
